map of BZK home
BZK - Airport
Location
City:  Bryansk, Bryanskaya, Russian Federation (Russia)
Name:Bryansk Airport
ICAO:UUBP
IATA:BZK

Details
Type:Airport (Aerodrome, Airfield)
Use:Public/Civil, International (customs port of entry)
Latitude:5312'52"N (53.214444)
Longitude:3410'33"E (34.175833)
Elevation:666 ft (203 m)
Variation:9.39E (WMM2015 magnetic declination)
0.12 annual change
Runways:1
Longest:7874 × 138 ft (2400 × 42 m), paved

Time
Time Zone:UTC+3 (DST+4)

Weather
METAR:UUBP 161300Z 03003MPS CAVOK 01/M12 Q1043 R34/CLRD70 NOSIG RMK QFE764/1019

Related Locations
Nearby:
Farthest:CHT: 10903 mi / 17547 km
Waitangi [Tuuta], CIT, NZ

Find:

   beyond  
but within

Other Information
Maps:
NOTAMs:
Links:
Sources:

  
  • flag of Russian Federation (Russia)
  • flag of Bryanskaya
  

Airport Diagram

Airport diagram for BZK

Airport diagram PDF from AIP of the Russian Federation

Sectional Chart

Flight Planning
at skyvector.com

Satellite Image

Google Maps Satellite view

Yandex Maps Satellite view


 

Copyright © 2004-2018 Karl L. Swartz. All rights reserved.
The Great Circle Mapper name and logo are trademarks of the Great Circle Mapper.
All other trademarks mentioned herein belong to their respective owners.
Please see credits for attibutions and further copyright information.

  Follow gcmap on Facebook Follow gcmap on Twitter Follow gcmap on Google+ GCmap on LinkedIn

hCard Microformat

Geo Microformat